TimeAEST,TemperatureF,Dew PointF,Humidity,Sea Level PressureIn,VisibilityMPH,Wind Direction,Wind SpeedMPH,Gust SpeedMPH,PrecipitationIn,Events,Conditions,WindDirDegrees,DateUTC
12:00 AM,81,70,62,29.77,,West,8.1,,,,,270,2013-02-02 14:00:00
12:00 AM,80.6,69.8,70,29.77,-9999.0,West,8.1,-,N/A,,Clear,270,2013-02-02 14:00:00
12:30 AM,82.4,69.8,66,29.74,6.2,West,8.1,-,N/A,,Partly Cloudy,280,2013-02-02 14:30:00
1:00 AM,82,69,56,29.76,,West,6.9,,,,,270,2013-02-02 15:00:00
1:00 AM,82.4,68.0,62,29.74,6.2,West,6.9,-,N/A,,Partly Cloudy,270,2013-02-02 15:00:00
1:30 AM,78.8,71.6,78,29.74,6.2,SE,4.6,-,N/A,,Partly Cloudy,130,2013-02-02 15:30:00
2:00 AM,77.0,71.6,83,29.74,-9999.0,WNW,4.6,-,N/A,,Clear,290,2013-02-02 16:00:00
2:30 AM,77.0,69.8,78,29.74,-9999.0,WSW,5.8,-,N/A,,Clear,250,2013-02-02 16:30:00
3:00 AM,78,71,74,29.73,,WNW,5.8,,,,,290,2013-02-02 17:00:00
3:00 AM,77.0,71.6,83,29.71,-9999.0,WNW,5.8,-,N/A,,Clear,290,2013-02-02 17:00:00
3:30 AM,77.0,71.6,83,29.71,-9999.0,South,5.8,-,N/A,,Clear,190,2013-02-02 17:30:00
4:00 AM,75,71,83,29.74,,SE,4.6,,,,,140,2013-02-02 18:00:00
4:00 AM,75.2,71.6,89,29.71,-9999.0,SE,4.6,-,N/A,,Clear,140,2013-02-02 18:00:00
4:30 AM,75.2,69.8,83,29.71,-9999.0,West,4.6,-,N/A,,Clear,270,2013-02-02 18:30:00
5:00 AM,75.2,69.8,83,29.74,6.2,West,3.5,-,N/A,,Unknown,270,2013-02-02 19:00:00
5:30 AM,73.4,69.8,88,29.74,-9999.0,NNW,1.2,-,N/A,,Clear,340,2013-02-02 19:30:00
6:00 AM,78,70,71,29.75,16,SSE,10.4,,,,Partly Cloudy,150,2013-02-02 20:00:00
6:00 AM,78.8,69.8,74,29.74,-9999.0,SSE,10.4,-,N/A,,Clear,150,2013-02-02 20:00:00
6:30 AM,78.8,69.8,74,29.77,-9999.0,SW,3.5,-,N/A,,Clear,220,2013-02-02 20:30:00
7:00 AM,79,71,72,29.79,,Calm,Calm,,,,,,2013-02-02 21:00:00
7:00 AM,78.8,71.6,78,29.77,-9999.0,Calm,Calm,-,N/A,,Clear,0,2013-02-02 21:00:00
7:30 AM,82.4,66.2,58,29.77,-9999.0,SW,6.9,-,N/A,,Clear,220,2013-02-02 21:30:00
8:00 AM,82.4,68.0,62,29.80,-9999.0,SSE,10.4,-,N/A,,Clear,160,2013-02-02 22:00:00
8:30 AM,84.2,64.4,51,29.80,-9999.0,SE,6.9,-,N/A,,Clear,140,2013-02-02 22:30:00
9:00 AM,86,63,36,29.81,9,SE,8.1,,,,Smoke,140,2013-02-02 23:00:00
9:00 AM,86.0,62.6,45,29.80,-9999.0,SE,8.1,-,N/A,,Clear,140,2013-02-02 23:00:00
9:30 AM,87.8,62.6,43,29.80,-9999.0,SE,8.1,-,N/A,,Clear,140,2013-02-02 23:30:00
10:00 AM,90,65,33,29.82,,SE,8.1,,,,,140,2013-02-03 00:00:00
10:00 AM,89.6,64.4,43,29.80,-9999.0,SE,8.1,-,N/A,,Clear,140,2013-02-03 00:00:00
10:30 AM,91.4,66.2,43,29.80,-9999.0,SSE,6.9,-,N/A,,Clear,160,2013-02-03 00:30:00
11:00 AM,91.4,69.8,49,29.80,-9999.0,ENE,6.9,-,N/A,,Clear,70,2013-02-03 01:00:00
11:30 AM,91.4,73.4,55,29.80,6.2,NNE,10.4,-,N/A,,Partly Cloudy,30,2013-02-03 01:30:00
12:00 PM,93,73,43,29.78,9,NE,11.5,,,,Smoke,40,2013-02-03 02:00:00
12:00 PM,93.2,73.4,52,29.77,6.2,NE,11.5,-,N/A,,Partly Cloudy,40,2013-02-03 02:00:00
12:30 PM,93.2,69.8,46,29.77,6.2,ENE,15.0,-,N/A,,Partly Cloudy,60,2013-02-03 02:30:00
1:00 PM,94,71,38,29.77,,NE,13.8,,,,,50,2013-02-03 03:00:00
1:00 PM,95.0,71.6,47,29.77,6.2,NE,13.8,-,N/A,,Partly Cloudy,50,2013-02-03 03:00:00
1:30 PM,95.0,68.0,41,29.74,6.2,ENE,12.7,-,N/A,,Partly Cloudy,70,2013-02-03 03:30:00
2:00 PM,95.0,69.8,44,29.74,6.2,ENE,15.0,-,N/A,,Partly Cloudy,60,2013-02-03 04:00:00
2:30 PM,95.0,71.6,47,29.71,6.2,ENE,15.0,-,N/A,,Partly Cloudy,60,2013-02-03 04:30:00
3:00 PM,94,71,38,29.73,19,ENE,15.0,,,,Partly Cloudy,60,2013-02-03 05:00:00
3:00 PM,93.2,71.6,49,29.71,6.2,ENE,15.0,-,N/A,,Partly Cloudy,60,2013-02-03 05:00:00
3:30 PM,93.2,69.8,46,29.71,6.2,East,15.0,-,N/A,,Partly Cloudy,80,2013-02-03 05:30:00
4:00 PM,93,71,39,29.73,,East,17.3,,,,,80,2013-02-03 06:00:00
4:00 PM,93.2,71.6,49,29.71,6.2,East,17.3,-,N/A,,Partly Cloudy,80,2013-02-03 06:00:00
4:30 PM,91.4,73.4,55,29.71,6.2,East,15.0,-,N/A,,Partly Cloudy,90,2013-02-03 06:30:00
5:00 PM,91.4,71.6,52,29.71,6.2,East,11.5,-,N/A,,Partly Cloudy,90,2013-02-03 07:00:00
5:30 PM,91.4,66.2,43,29.74,6.2,East,9.2,-,N/A,,Partly Cloudy,100,2013-02-03 07:30:00
6:00 PM,90,72,47,29.75,19,ESE,6.9,,,,Partly Cloudy,120,2013-02-03 08:00:00
6:00 PM,89.6,73.4,59,29.74,6.2,ESE,6.9,-,N/A,,Partly Cloudy,120,2013-02-03 08:00:00
6:30 PM,87.8,71.6,58,29.77,6.2,South,3.5,-,N/A,,Partly Cloudy,170,2013-02-03 08:30:00
7:00 PM,85,76,67,29.79,,South,1.2,,,,,180,2013-02-03 09:00:00
7:00 PM,86.0,75.2,70,29.77,6.2,South,1.2,-,N/A,,Partly Cloudy,180,2013-02-03 09:00:00
7:30 PM,84.2,75.2,74,29.80,6.2,SW,1.2,-,N/A,,Partly Cloudy,230,2013-02-03 09:30:00
8:00 PM,82.4,75.2,79,29.80,6.2,Calm,Calm,-,N/A,,Partly Cloudy,0,2013-02-03 10:00:00
8:30 PM,82.4,75.2,79,29.80,6.2,WSW,1.2,-,N/A,,Partly Cloudy,240,2013-02-03 10:30:00
9:00 PM,81,76,79,29.83,19,Calm,Calm,,,,Partly Cloudy,,2013-02-03 11:00:00
9:00 PM,80.6,75.2,84,29.83,6.2,Calm,Calm,-,N/A,,Partly Cloudy,0,2013-02-03 11:00:00
9:30 PM,80.6,77.0,89,29.83,6.2,Calm,Calm,-,N/A,,Partly Cloudy,0,2013-02-03 11:30:00
10:00 PM,80,76,84,29.86,,Calm,Calm,,,,,,2013-02-03 12:00:00
10:00 PM,80.6,75.2,84,29.83,6.2,Calm,Calm,-,N/A,,Partly Cloudy,0,2013-02-03 12:00:00
10:30 PM,78.8,75.2,89,29.86,6.2,Calm,Calm,-,N/A,,Partly Cloudy,0,2013-02-03 12:30:00
11:00 PM,80.6,75.2,84,29.86,6.2,South,2.3,-,N/A,,Partly Cloudy,170,2013-02-03 13:00:00
11:30 PM,80.6,75.2,84,29.86,6.2,SSE,5.8,-,N/A,,Partly Cloudy,160,2013-02-03 13:30:00